Weather History for Hallock, MN

Change the Weather History Date:

Friday, November 15, 2013

  Actual Average Record
Temperature  
Mean Temperature 37 °F -  
Max Temperature 48 °F 34 °F 62 °F (1939)
Min Temperature 26 °F 17 °F -17 °F (1935)
Degree Days  
Heating Degree Days 28    
Moisture  
Dew Point 32 °F    
Average Humidity 83    
Maximum Humidity 93    
Minimum Humidity 62    
Precipitation  
Precipitation 0.00 in - - ()
Sea Level Pressure  
Sea Level Pressure 29.56 in    
Wind  
Wind Speed 10 mph (South)    
Max Wind Speed 24 mph    
Max Gust Speed 29 mph    
Visibility 10 miles    
Events Rain    
Averages and records for this station are not official NWS values.
T = Trace of Precipitation, MM = Missing Value Source: NWS Daily Summary

Daily Weather History Graph

Daily Weather History Graph

Search for Another Location

Airport:

Trip Planner

Search our weather history database for the weather conditions in past years. The results will help you decide how hot, cold, wet, or windy it might be!

Date:

Astronomy

Nov. 15, 2013 Rise Set
Actual Time 7:36 AM CST 4:47 PM CST
Civil Twilight 7:02 AM CST 5:21 PM CST
Nautical Twilight 6:24 AM CST 6:00 PM CST
Astronomical Twilight 5:46 AM CST 6:37 PM CST
Moon 3:52 PM CST (11/15) 5:25 AM CST (11/15)
Length of Visible Light 10h 19m
Length of Day
9h 10m
Waxing Gibbous, 96% of the Moon is Illuminated
Nov 15
Waxing Gibbous
Nov 17
Full
Nov 25
Last Quarter
Dec 2
New
Dec 9
First Quarter

Hourly Weather History & Observations

Time (CST) Temp. Windchill Dew Point Humidity Pressure Visibility Wind Dir Wind Speed Gust Speed Precip Events Conditions
12:14 AM 33.8 °F 29.6 °F 30.2 °F 87% 29.73 in 10.0 mi NW 4.6 mph - N/A   Overcast
12:33 AM 33.8 °F 29.6 °F 30.2 °F 87% 29.74 in 10.0 mi West 4.6 mph - N/A   Overcast
12:53 AM 33.8 °F 28.6 °F 30.2 °F 87% 29.73 in 10.0 mi West 5.8 mph - N/A   Overcast
1:12 AM 33.8 °F 28.6 °F 30.2 °F 87% 29.72 in 10.0 mi West 5.8 mph - N/A   Overcast
1:33 AM 33.8 °F 27.7 °F 30.2 °F 87% 29.73 in 10.0 mi WNW 6.9 mph - N/A   Overcast
1:53 AM 33.8 °F 29.6 °F 30.2 °F 87% 29.73 in 10.0 mi WNW 4.6 mph - N/A   Overcast
2:13 AM 33.8 °F 30.8 °F 30.2 °F 87% 29.73 in 10.0 mi WSW 3.5 mph - N/A   Overcast
2:33 AM 33.8 °F 28.6 °F 30.2 °F 87% 29.74 in 10.0 mi WSW 5.8 mph - N/A   Overcast
2:54 AM 33.8 °F 29.6 °F 30.2 °F 87% 29.73 in 10.0 mi WSW 4.6 mph - N/A   Overcast
3:13 AM 33.8 °F - 30.2 °F 87% 29.71 in 10.0 mi Calm Calm - N/A   Mostly Cloudy
3:33 AM 32.0 °F 27.5 °F 28.4 °F 87% 29.70 in 10.0 mi South 4.6 mph - N/A   Scattered Clouds
3:54 AM 30.2 °F 22.6 °F 26.6 °F 86% 29.70 in 10.0 mi South 8.1 mph - N/A   Clear
4:13 AM 28.4 °F 21.2 °F 26.6 °F 93% 29.69 in 10.0 mi South 6.9 mph - N/A   Clear
4:33 AM 28.4 °F 22.2 °F 26.6 °F 93% 29.70 in 10.0 mi SSE 5.8 mph - N/A   Clear
4:54 AM 28.4 °F 21.2 °F 26.6 °F 93% 29.69 in 10.0 mi South 6.9 mph - N/A   Clear
5:13 AM 26.6 °F 20.0 °F 24.8 °F 93% 29.69 in 7.0 mi South 5.8 mph - N/A   Scattered Clouds
5:33 AM 26.6 °F 20.0 °F 24.8 °F 93% 29.68 in 7.0 mi South 5.8 mph - N/A   Mostly Cloudy
5:53 AM 28.4 °F 20.4 °F 26.6 °F 93% 29.69 in 7.0 mi South 8.1 mph - N/A   Mostly Cloudy
6:14 AM 28.4 °F 19.1 °F 26.6 °F 93% 29.69 in 7.0 mi South 10.4 mph - N/A   Scattered Clouds
6:33 AM 28.4 °F 19.1 °F 26.6 °F 93% 29.69 in 10.0 mi South 10.4 mph - N/A   Clear
6:54 AM 26.6 °F 17.5 °F 24.8 °F 93% 29.69 in 10.0 mi South 9.2 mph - N/A   Clear
7:13 AM 26.6 °F 17.5 °F 24.8 °F 93% 29.69 in 10.0 mi South 9.2 mph - N/A   Clear
7:33 AM 26.6 °F 17.5 °F 24.8 °F 93% 29.68 in - South 9.2 mph - N/A   Unknown
7:54 AM 26.6 °F 17.5 °F 24.8 °F 93% 29.68 in 10.0 mi South 9.2 mph - N/A   Unknown
8:13 AM 26.6 °F 17.5 °F 24.8 °F 93% 29.67 in 10.0 mi South 9.2 mph - N/A   Unknown
8:33 AM 28.4 °F 20.4 °F 26.6 °F 93% 29.67 in 10.0 mi SSE 8.1 mph - N/A   Unknown
8:54 AM 28.4 °F 19.7 °F 26.6 °F 93% 29.65 in 10.0 mi SSE 9.2 mph - N/A   Unknown
9:13 AM 30.2 °F 21.3 °F 28.4 °F 93% 29.65 in 10.0 mi South 10.4 mph - N/A   Unknown
9:33 AM 32.0 °F 22.5 °F 30.2 °F 93% 29.65 in 10.0 mi South 12.7 mph - N/A   Unknown
9:54 AM 33.8 °F 23.5 °F 30.2 °F 87% 29.64 in 10.0 mi South 16.1 mph 20.7 mph N/A   Unknown
10:13 AM 35.6 °F 25.2 °F 30.2 °F 81% 29.64 in 10.0 mi South 18.4 mph - N/A   Unknown
10:33 AM 35.6 °F 24.5 °F 30.2 °F 81% 29.63 in 10.0 mi South 20.7 mph - N/A   Unknown
10:54 AM 37.4 °F 26.6 °F 32.0 °F 81% 29.62 in 10.0 mi South 21.9 mph 25.3 mph N/A   Unknown
11:13 AM 37.4 °F 27.2 °F 32.0 °F 81% 29.61 in 10.0 mi South 19.6 mph 25.3 mph N/A   Unknown
11:33 AM 39.2 °F 29.6 °F 33.8 °F 81% 29.60 in 10.0 mi South 19.6 mph 25.3 mph N/A   Unknown
11:54 AM 41.0 °F 31.1 °F 33.8 °F 76% 29.58 in 10.0 mi South 23.0 mph 26.5 mph N/A   Unknown
12:13 PM 42.8 °F 33.3 °F 33.8 °F 70% 29.57 in 10.0 mi South 24.2 mph 27.6 mph N/A   Unknown
12:33 PM 42.8 °F 34.0 °F 35.6 °F 76% 29.55 in 10.0 mi South 20.7 mph - N/A   Unknown
12:54 PM 44.6 °F 35.7 °F 35.6 °F 71% 29.54 in 10.0 mi South 24.2 mph - N/A   Unknown
1:13 PM 44.6 °F 35.9 °F 35.6 °F 71% 29.53 in 10.0 mi South 23.0 mph - N/A   Unknown
1:33 PM 46.4 °F 38.5 °F 35.6 °F 66% 29.52 in 10.0 mi South 21.9 mph 26.5 mph N/A   Unknown
1:53 PM 46.4 °F 38.7 °F 35.6 °F 66% 29.50 in 10.0 mi South 20.7 mph 28.8 mph N/A   Unknown
2:13 PM 48.2 °F - 35.6 °F 62% 29.49 in 10.0 mi South 21.9 mph - N/A   Unknown
2:33 PM 48.2 °F - 35.6 °F 62% 29.48 in 10.0 mi South 19.6 mph - N/A   Unknown
2:54 PM 48.2 °F - 35.6 °F 62% 29.48 in 10.0 mi South 21.9 mph 27.6 mph N/A   Unknown
3:13 PM 48.2 °F - 35.6 °F 62% 29.47 in 10.0 mi South 19.6 mph 27.6 mph N/A   Unknown
3:34 PM 48.2 °F - 35.6 °F 62% 29.47 in 10.0 mi South 18.4 mph - N/A   Unknown
3:53 PM 48.2 °F - 35.6 °F 62% 29.46 in 10.0 mi South 16.1 mph - N/A   Unknown
4:13 PM 46.4 °F 40.1 °F 35.6 °F 66% 29.45 in 10.0 mi South 15.0 mph - N/A   Unknown
4:33 PM 44.6 °F 37.8 °F 35.6 °F 71% 29.45 in 10.0 mi South 15.0 mph - N/A   Unknown
4:53 PM 42.8 °F 35.8 °F 35.6 °F 76% 29.45 in 10.0 mi South 13.8 mph - N/A   Unknown
5:13 PM 42.8 °F 35.1 °F 33.8 °F 70% 29.44 in 10.0 mi South 16.1 mph - N/A   Unknown
5:34 PM 41.0 °F 33.9 °F 33.8 °F 76% 29.44 in 10.0 mi South 12.7 mph - N/A   Unknown
5:53 PM 39.2 °F 32.0 °F 33.8 °F 81% 29.44 in 10.0 mi South 11.5 mph - N/A   Unknown
6:13 PM 39.2 °F 31.6 °F 33.8 °F 81% 29.43 in 10.0 mi South 12.7 mph - N/A   Unknown
6:34 PM 39.2 °F 32.5 °F 33.8 °F 81% 29.42 in 10.0 mi SSE 10.4 mph - N/A   Unknown
6:53 PM 39.2 °F 31.6 °F 33.8 °F 81% 29.43 in 10.0 mi South 12.7 mph - N/A   Unknown
7:13 PM 41.0 °F 33.5 °F 35.6 °F 81% 29.43 in 10.0 mi South 13.8 mph - N/A   Unknown
7:34 PM 42.8 °F 36.6 °F 37.4 °F 81% 29.43 in 10.0 mi South 11.5 mph - N/A Rain Light Rain
7:53 PM 42.8 °F 37.5 °F 37.4 °F 81% 29.42 in 10.0 mi South 9.2 mph - N/A Rain Light Rain
8:13 PM 41.0 °F 36.4 °F 37.4 °F 87% 29.42 in 10.0 mi South 6.9 mph - N/A   Unknown
8:34 PM 41.0 °F 35.8 °F 37.4 °F 87% 29.41 in 10.0 mi SSE 8.1 mph - N/A   Unknown
8:53 PM 41.0 °F 36.4 °F 37.4 °F 87% 29.40 in 10.0 mi SSE 6.9 mph - N/A   Unknown
9:13 PM 39.2 °F 33.0 °F 37.4 °F 93% 29.38 in 10.0 mi SSE 9.2 mph - N/A   Unknown
9:33 PM 41.0 °F 34.7 °F 39.2 °F 93% 29.37 in 10.0 mi SSE 10.4 mph - N/A   Unknown
9:53 PM 42.8 °F 37.5 °F 39.2 °F 87% 29.37 in 10.0 mi SSE 9.2 mph - N/A   Unknown
10:13 PM 39.2 °F 33.0 °F 37.4 °F 93% 29.36 in 10.0 mi SSE 9.2 mph - N/A   Unknown
10:33 PM 41.0 °F 35.2 °F 37.4 °F 87% 29.35 in 10.0 mi South 9.2 mph - N/A   Unknown
10:53 PM 41.0 °F 34.7 °F 37.4 °F 87% 29.35 in 10.0 mi South 10.4 mph - N/A   Unknown
11:13 PM 39.2 °F 33.0 °F 35.6 °F 87% 29.35 in 10.0 mi South 9.2 mph - N/A   Unknown
11:33 PM 37.4 °F 31.4 °F 33.8 °F 87% 29.35 in 10.0 mi South 8.1 mph - N/A   Unknown
11:53 PM 35.6 °F 29.2 °F 33.8 °F 93% 29.34 in 10.0 mi South 8.1 mph - N/A   Unknown